createdAt,value
2023-02-19T00:01:16.435Z,25.33
2023-02-19T00:03:52.988Z,24.35
2023-02-19T00:06:27.410Z,23.90
2023-02-19T00:09:00.370Z,27.27
2023-02-19T00:11:35.235Z,25.98
2023-02-19T00:14:08.789Z,28.05
2023-02-19T00:16:41.647Z,22.65
2023-02-19T00:19:17.510Z,27.05
2023-02-19T00:21:52.500Z,28.08
2023-02-19T00:24:25.435Z,16.88
2023-02-19T00:26:58.171Z,28.40
2023-02-19T00:29:31.295Z,31.65
2023-02-19T00:32:05.223Z,19.77
2023-02-19T00:34:39.458Z,16.98
2023-02-19T00:37:12.345Z,25.08
2023-02-19T00:39:45.947Z,32.53
2023-02-19T00:42:18.732Z,29.23
2023-02-19T00:44:52.629Z,30.52
2023-02-19T00:47:26.310Z,24.15
2023-02-19T00:50:00.427Z,26.98
2023-02-19T00:52:33.139Z,25.40
2023-02-19T00:55:06.402Z,27.80
2023-02-19T00:57:39.245Z,19.40
2023-02-19T01:00:13.170Z,27.52
2023-02-19T01:02:46.044Z,37.17
2023-02-19T01:05:20.469Z,29.15
2023-02-19T01:07:53.368Z,29.00
2023-02-19T01:10:26.154Z,27.95
2023-02-19T01:12:58.971Z,29.33
2023-02-19T01:15:33.913Z,32.70
2023-02-19T01:18:07.435Z,29.00
2023-02-19T01:20:43.033Z,28.73
2023-02-19T01:23:15.839Z,28.17
2023-02-19T01:25:48.774Z,25.38
2023-02-19T01:28:23.792Z,21.42
2023-02-19T01:30:56.724Z,32.22
2023-02-19T01:33:29.575Z,26.83
2023-02-19T01:36:06.564Z,26.65
2023-02-19T01:38:39.357Z,29.65
2023-02-19T01:41:14.316Z,28.00
2023-02-19T01:46:32.536Z,26.05
2023-02-19T01:49:09.078Z,21.63
2023-02-19T01:51:48.162Z,18.60
2023-02-19T01:54:24.119Z,20.08
2023-02-19T01:57:00.227Z,23.25
2023-02-19T01:59:34.110Z,20.38
2023-02-19T02:02:07.870Z,21.95
2023-02-19T02:04:42.134Z,25.75
2023-02-19T02:07:30.221Z,23.13
2023-02-19T02:10:26.400Z,18.10
2023-02-19T02:12:59.497Z,15.05
2023-02-19T02:15:43.374Z,19.75
2023-02-19T02:18:28.176Z,17.30
2023-02-19T02:21:12.705Z,12.33
2023-02-19T02:24:07.319Z,16.85
2023-02-19T02:27:06.092Z,15.98
2023-02-19T02:30:17.688Z,18.52
2023-02-19T02:32:57.451Z,16.15
2023-02-19T02:35:35.351Z,14.77
2023-02-19T02:38:11.952Z,12.73
2023-02-19T02:40:45.991Z,14.98
2023-02-19T02:43:19.889Z,12.77
2023-02-19T02:45:54.322Z,11.45
2023-02-19T02:48:38.356Z,11.98
2023-02-19T02:51:17.737Z,16.23
2023-02-19T02:54:25.475Z,14.80
2023-02-19T02:57:00.757Z,9.82
2023-02-19T02:59:40.493Z,13.88
2023-02-19T03:02:18.976Z,12.60
2023-02-19T03:05:17.842Z,18.92
2023-02-19T03:07:55.832Z,20.73
2023-02-19T03:10:36.632Z,22.27
2023-02-19T03:13:31.663Z,22.10
2023-02-19T03:16:28.674Z,19.63
2023-02-19T03:19:20.015Z,24.55
2023-02-19T03:21:57.579Z,26.98
2023-02-19T03:24:51.141Z,25.42
2023-02-19T03:27:28.100Z,28.08
2023-02-19T03:30:06.357Z,27.27
2023-02-19T03:32:43.286Z,25.25
2023-02-19T03:35:22.152Z,26.67
2023-02-19T03:38:04.808Z,23.90
2023-02-19T03:40:47.898Z,30.10
2023-02-19T03:43:25.123Z,20.40
2023-02-19T03:46:07.692Z,25.77
2023-02-19T03:48:48.853Z,18.17
2023-02-19T03:51:35.203Z,20.05
2023-02-19T03:54:21.670Z,19.63
2023-02-19T03:57:00.877Z,22.20
2023-02-19T03:59:42.477Z,14.13
2023-02-19T04:02:19.189Z,17.17
2023-02-19T04:04:58.663Z,22.80
2023-02-19T04:07:38.709Z,20.80
2023-02-19T04:10:12.541Z,21.25
2023-02-19T04:12:54.069Z,20.13
2023-02-19T04:15:31.106Z,19.73
2023-02-19T04:18:08.402Z,19.55
2023-02-19T04:20:44.877Z,16.92
2023-02-19T04:23:23.540Z,19.73
2023-02-19T04:26:00.424Z,14.95
2023-02-19T04:28:33.421Z,19.88
2023-02-19T04:31:07.247Z,19.80
2023-02-19T04:33:40.178Z,17.13
2023-02-19T04:36:13.098Z,14.63
2023-02-19T04:38:47.342Z,22.30
2023-02-19T04:41:20.206Z,20.20
2023-02-19T04:43:53.442Z,17.52
2023-02-19T04:46:26.435Z,17.83
2023-02-19T04:48:59.211Z,15.13
2023-02-19T04:51:31.959Z,18.27
2023-02-19T04:54:06.653Z,16.77
2023-02-19T04:56:40.547Z,15.13
2023-02-19T04:59:13.995Z,17.15
2023-02-19T05:01:46.935Z,19.73
2023-02-19T05:04:19.957Z,18.08
2023-02-19T05:06:52.793Z,17.25
2023-02-19T05:09:27.135Z,17.45
2023-02-19T05:12:00.245Z,18.73
2023-02-19T05:14:33.196Z,15.57
2023-02-19T05:17:06.219Z,14.55
2023-02-19T05:19:39.317Z,14.27
2023-02-19T05:22:12.055Z,13.57
2023-02-19T05:24:46.168Z,15.57
2023-02-19T05:27:19.113Z,17.07
2023-02-19T05:29:52.076Z,18.05
2023-02-19T05:32:25.108Z,12.68
2023-02-19T05:34:57.848Z,14.55
2023-02-19T05:37:30.687Z,17.80
2023-02-19T05:40:05.558Z,12.35
2023-02-19T05:45:10.907Z,14.85
2023-02-19T05:47:43.642Z,11.02
2023-02-19T05:50:16.539Z,16.10
2023-02-19T05:52:49.465Z,14.32
2023-02-19T05:55:24.009Z,17.85
2023-02-19T05:57:59.323Z,14.80
2023-02-19T06:00:33.693Z,12.80
2023-02-19T06:03:06.482Z,11.82
2023-02-19T06:05:39.403Z,18.17
2023-02-19T06:08:14.096Z,12.25
2023-02-19T06:10:48.231Z,13.85
2023-02-19T06:13:21.032Z,14.65
2023-02-19T06:15:53.775Z,12.95
2023-02-19T06:18:26.666Z,15.68
2023-02-19T06:21:01.919Z,18.00
2023-02-19T06:23:35.482Z,11.93
2023-02-19T06:26:12.566Z,12.32
2023-02-19T06:28:46.191Z,11.52
2023-02-19T06:31:20.072Z,15.68
2023-02-19T06:33:52.946Z,11.43
2023-02-19T06:36:26.020Z,12.38
2023-02-19T06:39:00.948Z,13.45
2023-02-19T06:44:08.519Z,10.00
2023-02-19T06:46:42.987Z,10.50
2023-02-19T06:49:15.909Z,10.90
2023-02-19T06:51:48.986Z,7.85
2023-02-19T06:54:21.959Z,8.65
2023-02-19T06:56:58.845Z,9.25
2023-02-19T06:59:31.692Z,10.40
2023-02-19T07:02:04.552Z,7.85
2023-02-19T07:04:37.449Z,8.43
2023-02-19T07:07:12.488Z,9.13
2023-02-19T07:09:45.549Z,9.30
2023-02-19T07:12:19.789Z,12.25
2023-02-19T07:14:52.571Z,9.88
2023-02-19T07:17:25.504Z,7.72
2023-02-19T07:19:58.419Z,5.53
2023-02-19T07:22:31.283Z,9.90
2023-02-19T07:25:04.121Z,10.70
2023-02-19T07:27:38.422Z,13.70
2023-02-19T07:30:12.049Z,5.50
2023-02-19T07:32:45.875Z,6.72
2023-02-19T07:35:18.648Z,11.40
2023-02-19T07:37:51.424Z,9.05
2023-02-19T07:40:24.230Z,9.32
2023-02-19T07:43:00.294Z,8.77
2023-02-19T07:45:33.095Z,7.38
2023-02-19T07:48:05.985Z,9.68
2023-02-19T07:50:38.988Z,9.20
2023-02-19T07:53:11.774Z,9.00
2023-02-19T07:55:44.531Z,9.90
2023-02-19T07:58:19.091Z,7.60
2023-02-19T08:00:52.458Z,13.95
2023-02-19T08:03:24.420Z,10.15
2023-02-19T08:05:58.881Z,8.05
2023-02-19T08:08:31.757Z,10.60
2023-02-19T08:11:24.319Z,9.02
2023-02-19T08:13:58.489Z,7.25
2023-02-19T08:16:42.566Z,6.57
2023-02-19T08:19:16.283Z,6.07
2023-02-19T08:21:50.446Z,6.93
2023-02-19T08:24:23.348Z,10.15
2023-02-19T08:26:56.236Z,10.43
2023-02-19T08:29:30.302Z,6.85
2023-02-19T08:32:03.131Z,5.60
2023-02-19T08:34:37.037Z,7.63
2023-02-19T08:37:09.837Z,6.03
2023-02-19T08:39:42.682Z,10.85
2023-02-19T08:42:15.723Z,6.95
2023-02-19T08:44:49.864Z,8.70
2023-02-19T08:47:22.620Z,7.27
2023-02-19T08:49:55.418Z,7.22
2023-02-19T08:52:28.193Z,7.82
2023-02-19T08:55:01.141Z,7.50
2023-02-19T08:57:37.440Z,4.78
2023-02-19T09:00:13.402Z,7.55
2023-02-19T09:02:46.547Z,9.00
2023-02-19T09:05:19.533Z,5.78
2023-02-19T09:07:52.638Z,7.72
2023-02-19T09:10:25.536Z,7.20
2023-02-19T09:12:58.355Z,8.40
2023-02-19T09:15:33.278Z,6.32
2023-02-19T09:20:38.843Z,8.18
2023-02-19T09:23:11.718Z,6.00
2023-02-19T09:25:44.484Z,10.85
2023-02-19T09:28:17.672Z,8.85
2023-02-19T09:30:51.900Z,5.90
2023-02-19T09:33:24.762Z,7.72
2023-02-19T09:36:00.181Z,5.93
2023-02-19T09:38:32.953Z,7.55
2023-02-19T09:41:09.258Z,6.35
2023-02-19T09:43:44.374Z,7.53
2023-02-19T09:46:26.017Z,6.93
2023-02-19T09:49:05.284Z,7.20
2023-02-19T09:51:41.090Z,7.55
2023-02-19T09:54:21.387Z,6.93
2023-02-19T09:56:56.189Z,7.85
2023-02-19T10:02:12.581Z,7.38
2023-02-19T10:04:47.313Z,7.60
2023-02-19T10:07:23.373Z,7.20
2023-02-19T10:10:00.968Z,9.35
2023-02-19T10:12:35.063Z,7.38
2023-02-19T10:15:13.276Z,2.50
2023-02-19T10:17:47.364Z,1.75
2023-02-19T10:20:24.385Z,2.07
2023-02-19T10:23:03.204Z,1.70
2023-02-19T10:25:36.755Z,1.10
2023-02-19T10:28:15.848Z,2.55
2023-02-19T10:30:53.292Z,1.45
2023-02-19T10:33:28.386Z,1.70
2023-02-19T10:36:04.262Z,1.17
2023-02-19T10:38:43.376Z,1.00
2023-02-19T10:41:20.740Z,1.67
2023-02-19T10:43:56.597Z,1.13
2023-02-19T10:46:33.095Z,1.23
2023-02-19T10:49:20.610Z,1.63
2023-02-19T10:51:54.930Z,1.63
2023-02-19T10:54:31.163Z,1.70
2023-02-19T10:57:25.620Z,1.52
2023-02-19T11:00:01.137Z,2.17
2023-02-19T11:02:34.028Z,1.33
2023-02-19T11:05:19.750Z,1.40
2023-02-19T11:07:55.914Z,2.00
2023-02-19T11:10:31.044Z,1.63
2023-02-19T11:13:07.095Z,1.00
2023-02-19T11:15:40.204Z,1.23
2023-02-19T11:18:22.551Z,1.13
2023-02-19T11:20:59.966Z,1.27
2023-02-19T11:23:36.934Z,2.53
2023-02-19T11:26:19.301Z,1.13
2023-02-19T11:28:57.931Z,1.50
2023-02-19T11:31:32.602Z,1.85
2023-02-19T11:37:14.529Z,1.45
2023-02-19T11:42:41.758Z,2.45
2023-02-19T11:45:26.118Z,1.65
2023-02-19T11:48:33.138Z,1.63
2023-02-19T11:51:32.508Z,2.90
2023-02-19T11:54:19.797Z,1.55
2023-02-19T11:57:03.725Z,2.15
2023-02-19T11:59:43.738Z,1.73
2023-02-19T12:02:32.513Z,2.38
2023-02-19T12:05:21.737Z,2.47
2023-02-19T12:08:32.855Z,2.63
2023-02-19T12:11:31.473Z,1.83
2023-02-19T12:14:26.470Z,2.28
2023-02-19T12:17:08.902Z,2.30
2023-02-19T12:20:14.957Z,1.92
2023-02-19T12:22:58.809Z,3.28
2023-02-19T12:25:47.984Z,2.63
2023-02-19T12:28:50.578Z,2.00
2023-02-19T12:31:41.548Z,2.80
2023-02-19T12:34:36.347Z,1.40
2023-02-19T12:37:23.495Z,1.90
2023-02-19T12:40:15.033Z,1.35
2023-02-19T12:42:58.222Z,1.30
2023-02-19T12:45:37.425Z,2.53
2023-02-19T12:48:17.679Z,1.15
2023-02-19T12:50:56.102Z,1.00
2023-02-19T12:53:39.980Z,2.05
2023-02-19T12:56:18.399Z,1.40
2023-02-19T12:58:55.673Z,1.42
2023-02-19T13:01:34.200Z,1.50
2023-02-19T13:04:24.284Z,1.65
2023-02-19T13:07:02.324Z,1.55
2023-02-19T13:09:39.338Z,1.08
2023-02-19T13:12:16.229Z,1.25
2023-02-19T13:14:52.642Z,1.33
2023-02-19T13:17:32.821Z,2.13
2023-02-19T13:20:19.254Z,2.50
2023-02-19T13:23:18.878Z,1.60
2023-02-19T13:26:14.551Z,1.65
2023-02-19T13:29:08.486Z,3.35
2023-02-19T13:31:56.006Z,2.00
2023-02-19T13:34:43.069Z,1.58
2023-02-19T13:37:17.695Z,1.73
2023-02-19T13:39:52.999Z,2.22
2023-02-19T13:42:28.547Z,2.08
2023-02-19T13:45:02.630Z,1.77
2023-02-19T13:48:00.645Z,4.28
2023-02-19T13:50:35.809Z,1.63
2023-02-19T13:53:41.881Z,1.40
2023-02-19T13:56:42.062Z,1.60
2023-02-19T13:59:34.320Z,1.77
2023-02-19T14:02:17.555Z,2.47
2023-02-19T14:05:00.043Z,3.72
2023-02-19T14:07:49.306Z,3.70
2023-02-19T14:10:57.563Z,1.80
2023-02-19T14:14:06.428Z,3.42
2023-02-19T14:17:04.653Z,3.60
2023-02-19T14:19:52.864Z,2.42
2023-02-19T14:23:01.384Z,2.50
2023-02-19T14:25:59.244Z,2.45
2023-02-19T14:28:38.322Z,4.30
2023-02-19T14:31:19.584Z,2.17
2023-02-19T14:33:54.396Z,3.70
2023-02-19T14:36:48.725Z,3.05
2023-02-19T14:39:25.456Z,5.57
2023-02-19T14:42:01.273Z,2.60
2023-02-19T14:44:46.499Z,2.67
2023-02-19T14:50:01.453Z,3.00
2023-02-19T14:52:40.120Z,3.20
2023-02-19T14:55:21.602Z,4.28
2023-02-19T14:57:56.083Z,3.78
2023-02-19T15:00:31.045Z,2.80
2023-02-19T15:03:05.596Z,4.38
2023-02-19T15:05:38.695Z,4.93
2023-02-19T15:08:19.300Z,4.70
2023-02-19T15:10:53.572Z,3.70
2023-02-19T15:13:29.186Z,3.03
2023-02-19T15:16:02.150Z,3.65
2023-02-19T15:18:37.478Z,3.55
2023-02-19T15:21:23.652Z,3.72
2023-02-19T15:23:58.657Z,2.83
2023-02-19T15:29:11.982Z,3.33
2023-02-19T15:31:49.134Z,5.60
2023-02-19T15:34:23.873Z,3.80
2023-02-19T15:36:59.476Z,4.50
2023-02-19T15:39:36.678Z,5.03
2023-02-19T15:42:19.133Z,4.30
2023-02-19T15:44:57.455Z,4.40
2023-02-19T15:47:38.003Z,4.50
2023-02-19T15:50:17.005Z,6.82
2023-02-19T15:52:55.450Z,4.30
2023-02-19T15:55:36.871Z,4.88
2023-02-19T15:58:17.938Z,5.97
2023-02-19T16:00:55.072Z,5.85
2023-02-19T16:03:29.644Z,5.22
2023-02-19T16:06:05.142Z,5.57
2023-02-19T16:08:39.520Z,7.55
2023-02-19T16:11:30.273Z,5.50
2023-02-19T16:14:30.450Z,5.72
2023-02-19T16:17:14.718Z,5.63
2023-02-19T16:19:51.931Z,4.30
2023-02-19T16:22:27.370Z,5.47
2023-02-19T16:25:03.237Z,4.13
2023-02-19T16:27:38.527Z,3.80
2023-02-19T16:30:28.081Z,4.47
2023-02-19T16:33:23.587Z,4.80
2023-02-19T16:35:56.416Z,5.75
2023-02-19T16:38:29.342Z,6.10
2023-02-19T16:41:13.947Z,5.25
2023-02-19T16:43:47.042Z,6.15
2023-02-19T16:46:21.372Z,5.25
2023-02-19T16:48:55.369Z,5.10
2023-02-19T16:51:28.724Z,5.40
2023-02-19T16:54:01.507Z,6.55
2023-02-19T16:56:34.388Z,6.63
2023-02-19T16:59:07.913Z,5.45
2023-02-19T17:01:42.347Z,6.43
2023-02-19T17:04:15.883Z,6.72
2023-02-19T17:06:48.755Z,5.05
2023-02-19T17:09:21.566Z,5.15
2023-02-19T17:11:54.721Z,4.93
2023-02-19T17:14:27.576Z,5.55
2023-02-19T17:17:02.302Z,3.47
2023-02-19T17:22:08.770Z,9.20
2023-02-19T17:24:42.087Z,4.63
2023-02-19T17:27:15.276Z,3.58
2023-02-19T17:29:48.029Z,3.40
2023-02-19T17:32:25.223Z,3.45
2023-02-19T17:34:58.270Z,3.05
2023-02-19T17:37:31.030Z,2.88
2023-02-19T17:40:03.912Z,3.25
2023-02-19T17:42:36.914Z,4.57
2023-02-19T17:45:10.449Z,4.45
2023-02-19T17:47:44.898Z,5.57
2023-02-19T17:50:19.655Z,3.00
2023-02-19T17:52:52.665Z,3.83
2023-02-19T17:55:26.357Z,3.60
2023-02-19T17:57:59.253Z,3.30
2023-02-19T18:00:32.596Z,5.07
2023-02-19T18:03:08.706Z,3.13
2023-02-19T18:05:41.510Z,2.95
2023-02-19T18:08:14.509Z,3.50
2023-02-19T18:10:47.352Z,5.15
2023-02-19T18:13:20.201Z,3.53
2023-02-19T18:15:53.428Z,2.45
2023-02-19T18:18:27.675Z,2.72
2023-02-19T18:21:00.451Z,4.17
2023-02-19T18:23:33.331Z,3.92
2023-02-19T18:26:10.191Z,4.07
2023-02-19T18:28:43.005Z,3.50
2023-02-19T18:31:16.189Z,3.90
2023-02-19T18:33:50.814Z,3.97
2023-02-19T18:36:23.609Z,5.15
2023-02-19T18:38:56.462Z,4.55
2023-02-19T18:41:29.281Z,4.47
2023-02-19T18:44:02.033Z,3.30
2023-02-19T18:46:35.214Z,3.80
2023-02-19T18:49:09.406Z,4.00
2023-02-19T18:51:43.352Z,4.60
2023-02-19T18:54:16.304Z,3.00
2023-02-19T18:56:49.253Z,5.90
2023-02-19T18:59:22.904Z,4.13
2023-02-19T19:01:55.921Z,2.88
2023-02-19T19:04:30.083Z,3.88
2023-02-19T19:07:03.413Z,4.15
2023-02-19T19:09:36.358Z,4.50
2023-02-19T19:12:09.176Z,4.10
2023-02-19T19:14:42.227Z,3.85
2023-02-19T19:17:15.077Z,3.22
2023-02-19T19:19:49.276Z,5.00
2023-02-19T19:22:22.818Z,4.50
2023-02-19T19:24:55.545Z,3.83
2023-02-19T19:27:28.385Z,3.50
2023-02-19T19:30:01.265Z,5.00
2023-02-19T19:32:34.168Z,4.20
2023-02-19T19:35:09.305Z,4.75
2023-02-19T19:37:42.084Z,4.97
2023-02-19T19:40:16.836Z,4.22
2023-02-19T19:42:52.130Z,4.10
2023-02-19T19:45:24.898Z,4.22
2023-02-19T19:47:57.792Z,4.05
2023-02-19T19:50:32.044Z,4.63
2023-02-19T19:53:04.837Z,5.43
2023-02-19T19:55:37.655Z,5.15
2023-02-19T19:58:10.510Z,5.72
2023-02-19T20:00:43.598Z,5.15
2023-02-19T20:03:16.440Z,6.65
2023-02-19T20:05:51.139Z,6.25
2023-02-19T20:08:24.073Z,5.65
2023-02-19T20:10:57.024Z,6.45
2023-02-19T20:13:30.916Z,5.68
2023-02-19T20:16:03.856Z,8.20
2023-02-19T20:18:36.660Z,9.57
2023-02-19T20:21:12.086Z,9.23
2023-02-19T20:23:45.022Z,10.48
2023-02-19T20:26:23.168Z,10.77
2023-02-19T20:28:56.462Z,14.40
2023-02-19T20:31:29.416Z,8.85
2023-02-19T20:34:02.202Z,9.48
2023-02-19T20:36:43.412Z,6.85
2023-02-19T20:39:16.896Z,9.30
2023-02-19T20:41:51.766Z,9.45
2023-02-19T20:44:25.262Z,6.40
2023-02-19T20:47:00.057Z,7.28
2023-02-19T20:52:08.610Z,7.43
2023-02-19T20:54:42.573Z,11.00
2023-02-19T20:57:15.687Z,8.10
2023-02-19T20:59:48.459Z,9.18
2023-02-19T21:02:24.510Z,9.00
2023-02-19T21:04:58.412Z,8.93
2023-02-19T21:07:32.566Z,9.30
2023-02-19T21:10:06.162Z,9.80
2023-02-19T21:12:39.058Z,9.48
2023-02-19T21:15:11.819Z,10.27
2023-02-19T21:17:46.275Z,9.95
2023-02-19T21:20:19.228Z,12.82
2023-02-19T21:22:53.553Z,7.65
2023-02-19T21:25:26.549Z,10.00
2023-02-19T21:27:59.326Z,7.53
2023-02-19T21:30:32.141Z,9.95
2023-02-19T21:33:05.330Z,8.80
2023-02-19T21:35:38.256Z,9.35
2023-02-19T21:38:12.688Z,11.82
2023-02-19T21:40:45.487Z,9.43
2023-02-19T21:43:18.254Z,9.15
2023-02-19T21:45:51.050Z,10.07
2023-02-19T21:48:24.246Z,10.63
2023-02-19T21:50:57.022Z,7.93
2023-02-19T21:53:31.305Z,10.57
2023-02-19T21:56:04.281Z,9.80
2023-02-19T21:58:37.362Z,10.57
2023-02-19T22:01:10.227Z,8.95
2023-02-19T22:03:43.132Z,8.98
2023-02-19T22:06:16.620Z,8.43
2023-02-19T22:08:50.787Z,9.38
2023-02-19T22:11:24.006Z,9.25
2023-02-19T22:13:56.900Z,13.07
2023-02-19T22:16:29.937Z,10.90
2023-02-19T22:19:02.765Z,7.90
2023-02-19T22:21:35.759Z,9.50
2023-02-19T22:24:17.181Z,9.20
2023-02-19T22:26:50.702Z,9.15
2023-02-19T22:29:23.683Z,9.77
2023-02-19T22:31:56.471Z,10.15
2023-02-19T22:34:29.279Z,9.60
2023-02-19T22:37:02.025Z,10.27
2023-02-19T22:39:36.280Z,11.10
2023-02-19T22:42:09.039Z,12.43
2023-02-19T22:44:43.484Z,11.20
2023-02-19T22:47:18.822Z,12.40
2023-02-19T22:49:51.848Z,11.75
2023-02-19T22:52:27.886Z,12.25
2023-02-19T22:55:02.034Z,10.10
2023-02-19T22:57:36.300Z,10.23
2023-02-19T23:00:10.501Z,8.95
2023-02-19T23:02:43.303Z,11.57
2023-02-19T23:05:16.648Z,11.60
2023-02-19T23:07:50.573Z,11.32
2023-02-19T23:10:24.963Z,9.75
2023-02-19T23:12:58.008Z,10.63
2023-02-19T23:15:30.802Z,12.38
2023-02-19T23:18:04.482Z,8.98
2023-02-19T23:20:37.495Z,10.48
2023-02-19T23:23:10.329Z,10.15
2023-02-19T23:25:44.379Z,9.27
2023-02-19T23:28:17.168Z,9.47
2023-02-19T23:30:50.089Z,10.85
2023-02-19T23:33:22.965Z,11.10
2023-02-19T23:35:55.982Z,11.55
2023-02-19T23:38:29.026Z,10.95
2023-02-19T23:41:03.339Z,10.80
2023-02-19T23:43:36.107Z,11.65
2023-02-19T23:46:09.047Z,11.00
2023-02-19T23:48:41.870Z,12.77
2023-02-19T23:51:15.001Z,9.52
2023-02-19T23:53:47.913Z,12.00
2023-02-19T23:56:25.477Z,9.77
2023-02-19T23:58:58.495Z,7.60
